Time;durP1;ratioP1;P1;durP2;ratioP2;P2;SDS_P1;SDS_P2;PMS_P1;PMS_P2;Temp;Humidity;BMP_temperature;BMP_pressure;BME280_temperature;BME280_humidity;BME280_pressure;Samples;Min_cycle;Max_cycle;Signal;HPM_P1;HPM_P2
2024/03/22 00:00:20;;;;;;;34.70;25.67;;;12.40;99.90;;;;;;2092874;28;20021;-71
2024/03/22 00:01:20;;;;;;;40.45;25.42;;;12.40;99.90;;;;;;2094146;28;20037;-71
2024/03/22 00:02:21;;;;;;;31.10;24.60;;;12.40;99.90;;;;;;2092376;28;20095;-71
2024/03/22 00:03:22;;;;;;;35.28;25.67;;;12.40;99.90;;;;;;2095055;28;20024;-68
2024/03/22 00:04:23;;;;;;;34.65;26.00;;;12.40;99.90;;;;;;2093790;28;20065;-70
2024/03/22 00:05:24;;;;;;;35.17;26.23;;;12.40;99.90;;;;;;2093970;28;20032;-71
2024/03/22 00:06:24;;;;;;;34.67;26.42;;;12.40;99.90;;;;;;2091647;28;20017;-70
2024/03/22 00:07:25;;;;;;;35.40;26.10;;;12.40;99.90;;;;;;2093483;28;20106;-71
2024/03/22 00:08:25;;;;;;;35.08;25.80;;;12.40;99.90;;;;;;2095638;28;20024;-71
2024/03/22 00:09:26;;;;;;;33.25;25.00;;;12.40;99.90;;;;;;2094039;28;20436;-70
2024/03/22 00:10:26;;;;;;;35.33;26.17;;;12.40;99.90;;;;;;2094668;28;20062;-71
2024/03/22 00:11:27;;;;;;;33.75;25.63;;;12.40;99.90;;;;;;2094622;28;20048;-71
2024/03/22 00:12:27;;;;;;;32.80;25.33;;;12.40;99.90;;;;;;2095562;28;20451;-70
2024/03/22 00:13:28;;;;;;;36.50;25.90;;;12.40;99.90;;;;;;2093228;28;20024;-70
2024/03/22 00:14:31;;;;;;;32.53;24.23;;;12.40;99.90;;;;;;2092126;28;20400;-71
2024/03/22 00:15:31;;;;;;;33.22;24.50;;;12.40;99.90;;;;;;2092081;28;20167;-71
2024/03/22 00:16:32;;;;;;;33.50;25.25;;;12.40;99.90;;;;;;2095511;28;20028;-71
2024/03/22 00:17:33;;;;;;;33.33;24.48;;;12.40;99.90;;;;;;2095507;28;20021;-71
2024/03/22 00:18:34;;;;;;;34.03;25.65;;;12.40;99.90;;;;;;2093946;28;20059;-71
2024/03/22 00:19:35;;;;;;;32.38;25.23;;;12.40;99.90;;;;;;2095940;28;20040;-71
2024/03/22 00:20:35;;;;;;;37.70;26.42;;;12.40;99.90;;;;;;2096356;28;20082;-71
2024/03/22 00:21:36;;;;;;;33.70;24.60;;;12.40;99.90;;;;;;2092059;28;20017;-71
2024/03/22 00:22:36;;;;;;;33.97;24.38;;;12.40;99.90;;;;;;2094531;28;20036;-71
2024/03/22 00:23:37;;;;;;;32.65;23.65;;;12.40;99.90;;;;;;2093462;28;20032;-71
2024/03/22 00:24:38;;;;;;;32.40;24.05;;;12.40;99.90;;;;;;2094708;28;20051;-71
2024/03/22 00:25:38;;;;;;;34.83;25.48;;;12.40;99.90;;;;;;2094936;28;20025;-71
2024/03/22 00:26:39;;;;;;;36.90;24.45;;;12.40;99.90;;;;;;2093089;28;20086;-71
2024/03/22 00:27:40;;;;;;;38.08;25.85;;;12.40;99.90;;;;;;2093224;28;20629;-71
2024/03/22 00:28:41;;;;;;;34.75;24.33;;;12.40;99.90;;;;;;2093428;28;20029;-71
2024/03/22 00:29:41;;;;;;;35.95;25.85;;;12.40;99.90;;;;;;2093016;28;20029;-74
2024/03/22 00:30:42;;;;;;;35.97;25.77;;;12.40;99.90;;;;;;2094024;28;20023;-71
2024/03/22 00:31:42;;;;;;;32.95;24.20;;;12.40;99.90;;;;;;2093093;28;20500;-71
2024/03/22 00:32:47;;;;;;;34.80;24.92;;;12.40;99.90;;;;;;2093848;28;20028;-73
2024/03/22 00:33:47;;;;;;;36.75;25.83;;;12.40;99.90;;;;;;2094223;28;20113;-72
2024/03/22 00:34:48;;;;;;;33.65;23.40;;;12.40;99.90;;;;;;2093552;28;20036;-71
2024/03/22 00:35:48;;;;;;;33.05;23.98;;;12.40;99.90;;;;;;2094212;28;20024;-72
2024/03/22 00:36:50;;;;;;;29.83;23.02;;;12.40;99.90;;;;;;2094221;28;20021;-73
2024/03/22 00:37:51;;;;;;;34.25;23.52;;;12.40;99.90;;;;;;2091437;28;20024;-72
2024/03/22 00:38:51;;;;;;;33.03;23.25;;;12.40;99.90;;;;;;2094134;28;20039;-72
2024/03/22 00:39:52;;;;;;;34.25;23.95;;;12.40;99.90;;;;;;2094335;28;20027;-71
2024/03/22 00:40:53;;;;;;;33.67;23.33;;;12.40;99.90;;;;;;2095093;28;20028;-72
2024/03/22 00:41:53;;;;;;;32.90;24.17;;;12.40;99.90;;;;;;2094888;28;20157;-72
2024/03/22 00:42:54;;;;;;;31.25;23.40;;;12.40;99.90;;;;;;2094844;28;20369;-72
2024/03/22 00:43:55;;;;;;;32.95;24.48;;;12.40;99.90;;;;;;2094948;28;20547;-71
2024/03/22 00:44:56;;;;;;;33.50;24.02;;;12.40;99.90;;;;;;2093471;28;20047;-72
2024/03/22 00:45:58;;;;;;;33.55;23.48;;;12.40;99.90;;;;;;2094949;28;20027;-71
2024/03/22 00:46:59;;;;;;;33.72;22.88;;;12.40;99.90;;;;;;2095720;28;20028;-71
2024/03/22 00:47:59;;;;;;;33.35;22.98;;;12.50;99.90;;;;;;2092433;28;20032;-71
2024/03/22 00:49:00;;;;;;;33.80;24.60;;;12.50;99.90;;;;;;2094928;28;20063;-73
2024/03/22 00:50:01;;;;;;;35.55;22.38;;;12.50;99.90;;;;;;2092972;28;20036;-72
2024/03/22 00:51:08;;;;;;;34.15;24.65;;;12.50;99.90;;;;;;2095628;28;20052;-71
2024/03/22 00:52:08;;;;;;;32.05;23.00;;;12.50;99.90;;;;;;2093707;28;20034;-72
2024/03/22 00:53:09;;;;;;;33.53;23.25;;;12.50;99.90;;;;;;2092479;28;20504;-71
2024/03/22 00:54:13;;;;;;;32.17;23.15;;;12.50;99.90;;;;;;2094003;28;20434;-72
2024/03/22 00:55:14;;;;;;;32.50;21.88;;;12.50;99.90;;;;;;2094421;28;20020;-72
2024/03/22 00:56:18;;;;;;;34.08;23.10;;;12.50;99.90;;;;;;2094458;28;20073;-72
2024/03/22 00:57:21;;;;;;;31.02;22.77;;;12.50;99.90;;;;;;2093279;28;20061;-71
2024/03/22 00:58:21;;;;;;;33.20;22.63;;;12.50;99.90;;;;;;2092161;28;20025;-70
2024/03/22 00:59:22;;;;;;;33.65;23.70;;;12.50;99.90;;;;;;2093369;28;20032;-72
2024/03/22 01:00:23;;;;;;;34.13;23.13;;;12.50;99.90;;;;;;2091576;28;20485;-71
2024/03/22 01:01:24;;;;;;;31.33;23.42;;;12.60;99.90;;;;;;2094541;28;20070;-71
2024/03/22 01:02:25;;;;;;;35.53;23.00;;;12.60;99.90;;;;;;2094257;28;20065;-72
2024/03/22 01:03:25;;;;;;;34.78;22.48;;;12.60;99.90;;;;;;2094592;28;20071;-72
2024/03/22 01:04:26;;;;;;;33.83;22.70;;;12.60;99.90;;;;;;2094513;28;20506;-71
2024/03/22 01:05:26;;;;;;;32.80;23.65;;;12.60;99.90;;;;;;2093708;28;20028;-72
2024/03/22 01:06:27;;;;;;;32.67;23.90;;;12.60;99.90;;;;;;2094077;28;20024;-72
2024/03/22 01:07:28;;;;;;;31.33;23.65;;;12.60;99.90;;;;;;2095208;28;20360;-71
2024/03/22 01:08:28;;;;;;;32.40;22.63;;;12.60;99.90;;;;;;2093957;28;20107;-72
2024/03/22 01:09:29;;;;;;;30.83;23.45;;;12.60;99.90;;;;;;2094011;28;20025;-72
2024/03/22 01:10:30;;;;;;;31.38;23.23;;;12.70;99.90;;;;;;2093703;28;20526;-71
2024/03/22 01:11:30;;;;;;;33.65;24.05;;;12.60;99.90;;;;;;2093503;28;20059;-72
2024/03/22 01:12:31;;;;;;;33.55;22.48;;;12.60;99.90;;;;;;2093346;28;20591;-72
2024/03/22 01:13:31;;;;;;;35.65;23.05;;;12.70;99.90;;;;;;2093835;28;20021;-73
2024/03/22 01:14:32;;;;;;;34.15;23.65;;;12.70;99.90;;;;;;2093085;28;20032;-72
2024/03/22 01:15:32;;;;;;;30.85;21.77;;;12.70;99.90;;;;;;2093373;28;20031;-72
2024/03/22 01:16:33;;;;;;;33.25;23.08;;;12.70;99.90;;;;;;2094078;28;20024;-69
2024/03/22 01:17:34;;;;;;;33.60;23.98;;;12.70;99.90;;;;;;2092856;28;20460;-71
2024/03/22 01:18:35;;;;;;;35.22;23.88;;;12.70;99.90;;;;;;2094064;28;20078;-71
2024/03/22 01:19:35;;;;;;;35.80;24.27;;;12.70;99.90;;;;;;2094251;28;20060;-69
2024/03/22 01:20:36;;;;;;;32.65;23.08;;;12.70;99.90;;;;;;2093501;28;20029;-72
2024/03/22 01:21:36;;;;;;;29.08;22.45;;;12.70;99.90;;;;;;2092586;28;21148;-72
2024/03/22 01:22:37;;;;;;;34.72;24.23;;;12.80;99.90;;;;;;2093951;28;20078;-72
2024/03/22 01:23:38;;;;;;;34.42;23.58;;;12.80;99.90;;;;;;2095005;28;20033;-71
2024/03/22 01:24:38;;;;;;;36.67;24.10;;;12.80;99.90;;;;;;2094890;28;20103;-71
2024/03/22 01:25:39;;;;;;;31.45;23.02;;;12.80;99.90;;;;;;2093773;28;20073;-70
2024/03/22 01:26:39;;;;;;;35.47;23.40;;;12.80;99.90;;;;;;2092688;28;20515;-72
2024/03/22 01:27:40;;;;;;;34.95;24.30;;;12.80;99.90;;;;;;2093240;28;20025;-72
2024/03/22 01:28:40;;;;;;;31.92;23.35;;;12.80;99.90;;;;;;2093043;28;20063;-73
2024/03/22 01:29:41;;;;;;;33.80;23.40;;;12.80;99.90;;;;;;2093891;28;20020;-72
2024/03/22 01:30:43;;;;;;;32.38;23.00;;;12.80;99.90;;;;;;2094479;28;20457;-71
2024/03/22 01:31:43;;;;;;;32.40;23.20;;;12.90;99.90;;;;;;2094889;28;20028;-73
2024/03/22 01:32:44;;;;;;;32.90;25.00;;;12.80;99.90;;;;;;2094122;28;20027;-72
2024/03/22 01:33:45;;;;;;;33.15;23.83;;;12.90;99.90;;;;;;2093218;28;20112;-71
2024/03/22 01:34:45;;;;;;;32.33;23.58;;;12.90;99.90;;;;;;2093559;28;20040;-73
2024/03/22 01:35:46;;;;;;;33.55;23.48;;;12.90;99.90;;;;;;2093190;28;20024;-72
2024/03/22 01:36:46;;;;;;;36.13;24.30;;;12.90;99.90;;;;;;2083504;28;20040;-73
2024/03/22 01:37:47;;;;;;;33.75;22.95;;;12.90;99.90;;;;;;2086926;28;20025;-72
2024/03/22 01:38:47;;;;;;;33.40;22.73;;;12.90;99.90;;;;;;2092508;28;20123;-72
2024/03/22 01:39:48;;;;;;;32.60;23.42;;;12.90;99.90;;;;;;2093987;28;20029;-72
2024/03/22 01:40:48;;;;;;;35.45;23.88;;;12.90;99.90;;;;;;2093433;28;20024;-71
2024/03/22 01:41:50;;;;;;;36.00;23.95;;;12.90;99.90;;;;;;2095076;28;20047;-72
2024/03/22 01:42:56;;;;;;;32.00;22.98;;;12.90;99.90;;;;;;2094276;28;20036;-72
2024/03/22 01:43:58;;;;;;;37.45;24.30;;;12.90;99.90;;;;;;2093082;28;20082;-71
2024/03/22 01:44:58;;;;;;;35.28;23.48;;;12.90;99.90;;;;;;2093271;28;20221;-72
2024/03/22 01:45:59;;;;;;;36.33;24.83;;;13.00;99.90;;;;;;2092749;28;20021;-71
2024/03/22 01:46:59;;;;;;;37.95;25.02;;;12.90;99.90;;;;;;2094365;28;20037;-71
2024/03/22 01:48:00;;;;;;;36.15;24.92;;;13.00;99.90;;;;;;2093494;28;20060;-70
2024/03/22 01:49:01;;;;;;;40.95;25.13;;;13.00;99.90;;;;;;2092784;28;20048;-71
2024/03/22 01:50:02;;;;;;;32.75;24.10;;;13.00;99.90;;;;;;2093986;28;20488;-71
2024/03/22 01:51:05;;;;;;;33.90;24.65;;;13.00;99.90;;;;;;2093098;28;20393;-72
2024/03/22 01:52:05;;;;;;;37.15;24.98;;;13.00;99.90;;;;;;2094570;28;20028;-72
2024/03/22 01:53:06;;;;;;;34.35;24.42;;;13.00;99.90;;;;;;2093593;28;20116;-72
2024/03/22 01:54:09;;;;;;;35.78;23.30;;;13.00;99.90;;;;;;2094718;28;20045;-73
2024/03/22 01:55:10;;;;;;;36.03;24.65;;;13.10;99.90;;;;;;2092266;28;20036;-71
2024/03/22 01:56:10;;;;;;;34.70;25.10;;;13.10;99.90;;;;;;2095650;28;20040;-72
2024/03/22 01:57:11;;;;;;;34.88;24.08;;;13.00;99.90;;;;;;2094587;28;20029;-73
2024/03/22 01:58:12;;;;;;;32.03;23.65;;;13.00;99.90;;;;;;2094108;28;20055;-72
2024/03/22 01:59:13;;;;;;;35.63;24.38;;;13.10;99.90;;;;;;2093585;28;20052;-72
2024/03/22 02:00:14;;;;;;;34.25;23.02;;;13.10;99.90;;;;;;2092545;28;20083;-71
2024/03/22 02:01:15;;;;;;;41.97;24.83;;;13.10;99.90;;;;;;2094639;28;20028;-72
2024/03/22 02:02:15;;;;;;;35.00;23.77;;;13.10;99.90;;;;;;2091732;28;20695;-72
2024/03/22 02:03:16;;;;;;;34.72;24.75;;;13.10;99.90;;;;;;2084956;28;20033;-71
2024/03/22 02:04:16;;;;;;;33.15;23.70;;;13.10;99.90;;;;;;2084568;28;20029;-72
2024/03/22 02:05:21;;;;;;;35.50;24.45;;;13.10;99.90;;;;;;2092667;28;20028;-72
2024/03/22 02:06:21;;;;;;;35.60;24.17;;;13.10;99.90;;;;;;2094441;28;20021;-71
2024/03/22 02:07:22;;;;;;;31.88;23.73;;;13.10;99.90;;;;;;2092669;28;20032;-72
2024/03/22 02:08:23;;;;;;;34.95;23.25;;;13.10;99.90;;;;;;2093446;28;20540;-70
2024/03/22 02:09:23;;;;;;;33.03;23.38;;;13.10;99.90;;;;;;2094069;28;20048;-72
2024/03/22 02:10:24;;;;;;;35.10;23.80;;;13.10;99.90;;;;;;2093501;28;20027;-71
2024/03/22 02:11:28;;;;;;;34.05;23.55;;;13.10;99.90;;;;;;2092791;28;20104;-72
2024/03/22 02:12:29;;;;;;;32.75;23.08;;;13.20;99.90;;;;;;2093897;28;20017;-72
2024/03/22 02:13:29;;;;;;;36.03;24.20;;;13.20;99.90;;;;;;2093719;28;20050;-72
2024/03/22 02:14:30;;;;;;;33.58;23.15;;;13.20;99.90;;;;;;2094772;28;20024;-71
2024/03/22 02:15:31;;;;;;;33.13;22.15;;;13.20;99.90;;;;;;2091106;28;20110;-72
2024/03/22 02:16:31;;;;;;;32.50;23.60;;;13.20;99.90;;;;;;2093971;28;20026;-71
2024/03/22 02:17:32;;;;;;;31.52;22.80;;;13.20;99.90;;;;;;2094528;28;20060;-72
2024/03/22 02:18:33;;;;;;;34.58;23.27;;;13.20;99.90;;;;;;2092498;28;20021;-72
2024/03/22 02:19:34;;;;;;;31.60;21.92;;;13.20;99.90;;;;;;2095077;28;20984;-72
2024/03/22 02:20:34;;;;;;;31.45;23.15;;;13.20;99.90;;;;;;2093827;28;20036;-72
2024/03/22 02:21:35;;;;;;;31.23;21.83;;;13.20;99.90;;;;;;2089703;28;20020;-72
2024/03/22 02:22:36;;;;;;;34.25;23.13;;;13.20;99.90;;;;;;2096791;28;20111;-72
2024/03/22 02:23:38;;;;;;;33.00;22.40;;;13.20;99.90;;;;;;2094327;28;20119;-72
2024/03/22 02:24:38;;;;;;;32.90;22.77;;;13.20;99.90;;;;;;2095292;28;20017;-73
2024/03/22 02:25:39;;;;;;;33.28;23.25;;;13.30;99.90;;;;;;2094985;28;20081;-72
2024/03/22 02:26:39;;;;;;;35.03;23.38;;;13.20;99.90;;;;;;2095181;28;20016;-72
2024/03/22 02:27:41;;;;;;;34.83;22.30;;;13.20;99.90;;;;;;2094956;28;20669;-72
2024/03/22 02:28:42;;;;;;;31.33;22.63;;;13.30;99.90;;;;;;2094352;28;20066;-71
2024/03/22 02:29:42;;;;;;;35.95;23.95;;;13.20;99.90;;;;;;2093253;28;20059;-72
2024/03/22 02:30:43;;;;;;;34.35;22.38;;;13.20;99.90;;;;;;2096308;28;20048;-73
2024/03/22 02:31:44;;;;;;;33.83;23.52;;;13.30;99.90;;;;;;2094625;28;20034;-73
2024/03/22 02:32:44;;;;;;;32.00;22.50;;;13.30;99.90;;;;;;2096218;28;20047;-72
2024/03/22 02:33:45;;;;;;;32.78;22.02;;;13.30;99.90;;;;;;2094532;28;20030;-73
2024/03/22 02:34:45;;;;;;;32.97;21.70;;;13.30;99.90;;;;;;2094376;28;20048;-70
2024/03/22 02:35:47;;;;;;;31.33;21.80;;;13.30;99.90;;;;;;2095254;28;20075;-71
2024/03/22 02:36:47;;;;;;;29.38;21.48;;;13.30;99.90;;;;;;2093470;28;20080;-70
2024/03/22 02:37:48;;;;;;;31.05;21.70;;;13.30;99.90;;;;;;2095427;28;20021;-72
2024/03/22 02:38:48;;;;;;;31.92;22.13;;;13.30;99.90;;;;;;2095194;28;20029;-73
2024/03/22 02:39:49;;;;;;;31.58;21.15;;;13.30;99.90;;;;;;2096147;28;20044;-72
2024/03/22 02:40:51;;;;;;;33.25;21.90;;;13.30;99.90;;;;;;2094029;28;20043;-72
2024/03/22 02:41:52;;;;;;;29.23;20.73;;;13.30;99.90;;;;;;2093963;28;20098;-72
2024/03/22 02:42:52;;;;;;;33.35;22.08;;;13.30;99.90;;;;;;2094780;28;20020;-73
2024/03/22 02:43:53;;;;;;;34.03;21.95;;;13.40;99.90;;;;;;2093562;28;20051;-71
2024/03/22 02:44:53;;;;;;;32.90;21.90;;;13.40;99.90;;;;;;2094173;28;20112;-72
2024/03/22 02:45:54;;;;;;;32.28;22.02;;;13.30;99.90;;;;;;2095651;28;20025;-72
2024/03/22 02:46:54;;;;;;;33.22;22.75;;;13.30;99.90;;;;;;2094379;28;21073;-71
2024/03/22 02:47:55;;;;;;;34.90;22.48;;;13.30;99.90;;;;;;2095910;28;20030;-72
2024/03/22 02:48:55;;;;;;;29.95;21.40;;;13.40;99.90;;;;;;2094737;28;20045;-72
2024/03/22 02:49:56;;;;;;;30.80;21.83;;;13.40;99.90;;;;;;2092651;28;21053;-72
2024/03/22 02:50:56;;;;;;;30.90;22.48;;;13.40;99.90;;;;;;2096761;28;20033;-72
2024/03/22 02:51:57;;;;;;;31.10;22.67;;;13.40;99.90;;;;;;2086791;28;20105;-71
2024/03/22 02:52:57;;;;;;;31.42;22.45;;;13.40;99.90;;;;;;2086373;28;20025;-70
2024/03/22 02:53:58;;;;;;;31.33;22.02;;;13.40;99.90;;;;;;2093591;28;20370;-72
2024/03/22 02:54:58;;;;;;;32.53;22.92;;;13.40;99.90;;;;;;2095314;28;20064;-71
2024/03/22 02:56:02;;;;;;;30.90;22.42;;;13.40;99.90;;;;;;2095548;28;20021;-72
2024/03/22 02:57:02;;;;;;;31.08;21.75;;;13.40;99.90;;;;;;2094830;28;20085;-72
2024/03/22 02:58:03;;;;;;;31.23;21.98;;;13.40;99.90;;;;;;2096630;28;20063;-73
2024/03/22 02:59:03;;;;;;;29.38;22.40;;;13.40;99.90;;;;;;2092477;28;20494;-73
2024/03/22 03:00:05;;;;;;;33.33;21.98;;;13.40;99.90;;;;;;2095679;28;20033;-72
2024/03/22 03:01:05;;;;;;;33.00;21.90;;;13.40;99.90;;;;;;2094701;28;20036;-73
2024/03/22 03:02:06;;;;;;;29.65;22.42;;;13.40;99.90;;;;;;2094567;28;20123;-72
2024/03/22 03:03:07;;;;;;;33.53;23.20;;;13.40;99.90;;;;;;2093763;28;20107;-73
2024/03/22 03:04:07;;;;;;;34.28;22.80;;;13.40;99.90;;;;;;2095338;28;20037;-72
2024/03/22 03:05:08;;;;;;;31.88;22.40;;;13.40;99.90;;;;;;2093787;28;20025;-71
2024/03/22 03:06:09;;;;;;;27.08;21.38;;;13.40;99.90;;;;;;2094885;28;20041;-72
2024/03/22 03:07:10;;;;;;;37.28;23.02;;;13.40;99.90;;;;;;2093257;28;20017;-71
2024/03/22 03:08:11;;;;;;;31.63;21.48;;;13.40;99.90;;;;;;2093370;28;20028;-73
2024/03/22 03:09:12;;;;;;;31.88;20.83;;;13.40;99.90;;;;;;2093801;28;20021;-72
2024/03/22 03:10:12;;;;;;;30.15;22.63;;;13.40;99.90;;;;;;2093330;28;20369;-72
2024/03/22 03:11:14;;;;;;;30.73;21.80;;;13.50;99.90;;;;;;2094842;28;20028;-72
2024/03/22 03:12:14;;;;;;;29.20;21.02;;;13.40;99.90;;;;;;2094775;28;20089;-72
2024/03/22 03:13:15;;;;;;;35.58;22.67;;;13.40;99.90;;;;;;2095362;28;20029;-72
2024/03/22 03:14:16;;;;;;;30.77;22.30;;;13.50;99.90;;;;;;2093229;28;20025;-72
2024/03/22 03:15:17;;;;;;;29.35;22.20;;;13.40;99.90;;;;;;2095621;28;20111;-72
2024/03/22 03:16:18;;;;;;;32.92;21.85;;;13.50;99.90;;;;;;2093967;28;20028;-72
2024/03/22 03:17:18;;;;;;;31.52;22.38;;;13.40;99.90;;;;;;2093676;28;20384;-72
2024/03/22 03:18:19;;;;;;;33.35;23.30;;;13.50;99.90;;;;;;2095190;28;20024;-72
2024/03/22 03:19:19;;;;;;;31.25;22.38;;;13.40;99.90;;;;;;2094372;28;20107;-73
2024/03/22 03:20:20;;;;;;;31.27;22.08;;;13.40;99.90;;;;;;2094072;28;20047;-71
2024/03/22 03:21:20;;;;;;;32.88;22.42;;;13.40;99.90;;;;;;2094996;28;20020;-72
2024/03/22 03:22:21;;;;;;;31.50;21.85;;;13.50;99.90;;;;;;2095017;28;20182;-72
2024/03/22 03:23:21;;;;;;;32.08;21.55;;;13.40;99.90;;;;;;2095757;28;20047;-72
2024/03/22 03:24:22;;;;;;;31.80;22.42;;;13.40;99.90;;;;;;2094054;28;20396;-73
2024/03/22 03:25:22;;;;;;;30.30;22.15;;;13.50;99.90;;;;;;2094746;28;20127;-73
2024/03/22 03:26:23;;;;;;;29.83;22.40;;;13.40;99.90;;;;;;2095108;28;20023;-70
2024/03/22 03:27:23;;;;;;;35.25;22.50;;;13.50;99.90;;;;;;2095150;28;20017;-72
2024/03/22 03:28:26;;;;;;;28.52;21.75;;;13.50;99.90;;;;;;2095236;28;20079;-72
2024/03/22 03:29:26;;;;;;;30.58;21.88;;;13.50;99.90;;;;;;2094327;28;20112;-73
2024/03/22 03:30:27;;;;;;;32.13;23.23;;;13.50;99.90;;;;;;2095050;28;20036;-72
2024/03/22 03:31:27;;;;;;;31.20;21.40;;;13.50;99.90;;;;;;2093772;28;20392;-73
2024/03/22 03:32:28;;;;;;;29.90;21.95;;;13.50;99.90;;;;;;2095765;28;20017;-72
2024/03/22 03:33:29;;;;;;;31.17;22.35;;;13.50;99.90;;;;;;2085173;28;20017;-72
2024/03/22 03:34:30;;;;;;;31.83;22.17;;;13.50;99.90;;;;;;2088181;28;20505;-72
2024/03/22 03:35:30;;;;;;;29.63;22.73;;;13.50;99.90;;;;;;2095493;28;20444;-73
2024/03/22 03:36:31;;;;;;;31.90;23.13;;;13.50;99.90;;;;;;2093909;28;20381;-72
2024/03/22 03:37:31;;;;;;;29.42;22.55;;;13.50;99.90;;;;;;2094254;28;20025;-72
2024/03/22 03:38:32;;;;;;;30.42;22.83;;;13.50;99.90;;;;;;2092985;28;20099;-72
2024/03/22 03:39:33;;;;;;;30.23;23.13;;;13.50;99.90;;;;;;2093428;28;20449;-72
2024/03/22 03:40:34;;;;;;;32.45;24.00;;;13.50;99.90;;;;;;2095151;28;20046;-73
2024/03/22 03:41:35;;;;;;;33.17;22.83;;;13.50;99.90;;;;;;2094472;28;20025;-72
2024/03/22 03:42:36;;;;;;;28.60;21.30;;;13.50;99.90;;;;;;2095455;28;20032;-72
2024/03/22 03:43:36;;;;;;;30.75;22.25;;;13.50;99.90;;;;;;2095156;28;20033;-73
2024/03/22 03:44:37;;;;;;;30.52;22.33;;;13.50;99.90;;;;;;2094096;28;20040;-73
2024/03/22 03:45:38;;;;;;;32.05;22.10;;;13.50;99.90;;;;;;2095580;28;20025;-72
2024/03/22 03:46:38;;;;;;;30.27;22.15;;;13.50;99.90;;;;;;2094740;28;20111;-72
2024/03/22 03:47:39;;;;;;;29.08;22.50;;;13.40;99.90;;;;;;2095483;28;20028;-72
2024/03/22 03:48:39;;;;;;;33.00;22.83;;;13.40;99.90;;;;;;2094948;28;20468;-73
2024/03/22 03:49:40;;;;;;;29.35;21.50;;;13.40;99.90;;;;;;2094851;28;20059;-71
2024/03/22 03:50:40;;;;;;;28.23;21.38;;;13.50;99.90;;;;;;2093650;28;20107;-72
2024/03/22 03:51:41;;;;;;;31.25;21.67;;;13.40;99.90;;;;;;2092917;28;20044;-73
2024/03/22 03:52:41;;;;;;;29.98;21.42;;;13.40;99.90;;;;;;2092905;28;20108;-72
2024/03/22 03:53:42;;;;;;;27.75;21.15;;;13.40;99.90;;;;;;2093476;28;20016;-73
2024/03/22 03:54:42;;;;;;;29.38;22.02;;;13.50;99.90;;;;;;2094145;28;20027;-71
2024/03/22 03:55:43;;;;;;;30.20;20.38;;;13.40;99.90;;;;;;2093730;28;20089;-71
2024/03/22 03:56:43;;;;;;;25.95;20.92;;;13.40;99.90;;;;;;2093104;28;20504;-71
2024/03/22 03:57:44;;;;;;;30.08;22.00;;;13.40;99.90;;;;;;2096095;28;20025;-73
2024/03/22 03:58:47;;;;;;;28.52;21.10;;;13.40;99.90;;;;;;2094072;28;20028;-73
2024/03/22 03:59:48;;;;;;;29.65;20.75;;;13.40;99.90;;;;;;2094583;28;20036;-72
2024/03/22 04:00:48;;;;;;;29.80;21.15;;;13.40;99.90;;;;;;2092502;28;20107;-72
2024/03/22 04:01:49;;;;;;;28.15;21.83;;;13.40;99.90;;;;;;2094612;28;20036;-72
2024/03/22 04:02:50;;;;;;;28.60;21.05;;;13.40;99.90;;;;;;2094247;28;20745;-72
2024/03/22 04:03:51;;;;;;;29.00;21.52;;;13.40;99.90;;;;;;2092306;28;20488;-71
2024/03/22 04:04:54;;;;;;;30.00;21.48;;;13.40;99.90;;;;;;2094293;28;20060;-69
2024/03/22 04:05:59;;;;;;;28.33;21.63;;;13.40;99.90;;;;;;2093981;28;20103;-72
2024/03/22 04:06:59;;;;;;;28.60;20.63;;;13.40;99.90;;;;;;2093993;28;20070;-73
2024/03/22 04:08:00;;;;;;;30.40;22.80;;;13.40;99.90;;;;;;2096045;28;20037;-72
2024/03/22 04:09:00;;;;;;;32.35;21.73;;;13.40;99.90;;;;;;2094185;28;20110;-72
2024/03/22 04:10:01;;;;;;;30.02;22.45;;;13.40;99.90;;;;;;2096333;28;20020;-72
2024/03/22 04:11:02;;;;;;;28.30;20.67;;;13.40;99.90;;;;;;2082857;28;20049;-72
2024/03/22 04:12:03;;;;;;;28.25;22.33;;;13.40;99.90;;;;;;2084493;28;20025;-72
2024/03/22 04:13:04;;;;;;;28.98;21.52;;;13.40;99.90;;;;;;2097378;28;20029;-72
2024/03/22 04:14:07;;;;;;;29.38;20.75;;;13.40;99.90;;;;;;2095263;28;20119;-71
2024/03/22 04:15:08;;;;;;;31.25;21.30;;;13.40;99.90;;;;;;2094022;28;20037;-71
2024/03/22 04:16:08;;;;;;;31.20;21.30;;;13.40;99.90;;;;;;2095389;28;20024;-72
2024/03/22 04:17:09;;;;;;;28.30;21.80;;;13.40;99.90;;;;;;2093678;28;20032;-73
2024/03/22 04:18:12;;;;;;;30.30;22.02;;;13.40;99.90;;;;;;2095170;28;20507;-69
2024/03/22 04:19:13;;;;;;;29.85;21.38;;;13.40;99.90;;;;;;2094710;28;20445;-72
2024/03/22 04:20:14;;;;;;;31.08;21.77;;;13.40;99.90;;;;;;2092861;28;20405;-72
2024/03/22 04:21:14;;;;;;;27.85;20.40;;;13.40;99.90;;;;;;2093266;28;20082;-73
2024/03/22 04:22:15;;;;;;;29.27;21.40;;;13.40;99.90;;;;;;2092246;28;20669;-73
2024/03/22 04:23:16;;;;;;;28.60;20.92;;;13.30;99.90;;;;;;2092927;28;20024;-69
2024/03/22 04:24:16;;;;;;;26.90;20.80;;;13.30;99.90;;;;;;2094891;28;20908;-71
2024/03/22 04:25:17;;;;;;;30.90;21.67;;;13.30;99.90;;;;;;2094107;28;20060;-71
2024/03/22 04:26:17;;;;;;;26.83;20.42;;;13.30;99.90;;;;;;2094780;28;20118;-71
2024/03/22 04:27:18;;;;;;;26.02;20.45;;;13.30;99.90;;;;;;2093541;28;20449;-70
2024/03/22 04:28:18;;;;;;;27.98;20.23;;;13.30;99.90;;;;;;2093760;28;20020;-71
2024/03/22 04:29:19;;;;;;;29.60;20.33;;;13.30;99.90;;;;;;2094530;28;20144;-71
2024/03/22 04:30:19;;;;;;;29.63;20.55;;;13.30;99.90;;;;;;2093665;28;20425;-72
2024/03/22 04:31:20;;;;;;;27.15;20.48;;;13.30;99.90;;;;;;2095303;28;20060;-71
2024/03/22 04:32:20;;;;;;;25.58;19.55;;;13.30;99.90;;;;;;2093467;28;20397;-72
2024/03/22 04:33:21;;;;;;;28.52;20.45;;;13.30;99.90;;;;;;2095284;28;20028;-71
2024/03/22 04:34:22;;;;;;;25.95;20.45;;;13.30;99.90;;;;;;2085153;28;20064;-69
2024/03/22 04:35:22;;;;;;;29.50;21.10;;;13.30;99.90;;;;;;2085253;28;20029;-72
2024/03/22 04:36:23;;;;;;;28.85;19.85;;;13.30;99.90;;;;;;2093154;28;20082;-71
2024/03/22 04:37:23;;;;;;;24.83;20.40;;;13.30;99.90;;;;;;2093895;28;20028;-71
2024/03/22 04:38:25;;;;;;;27.25;19.70;;;13.30;99.90;;;;;;2094255;28;20028;-70
2024/03/22 04:39:25;;;;;;;25.70;19.55;;;13.30;99.90;;;;;;2094328;28;20845;-71
2024/03/22 04:40:26;;;;;;;26.02;19.92;;;13.30;99.90;;;;;;2094776;28;20499;-71
2024/03/22 04:41:27;;;;;;;28.48;19.67;;;13.30;99.90;;;;;;2094393;28;20032;-70
2024/03/22 04:42:27;;;;;;;25.77;19.10;;;13.30;99.90;;;;;;2095046;28;20024;-71
2024/03/22 04:43:28;;;;;;;27.38;19.38;;;13.30;99.90;;;;;;2094506;28;20020;-70
2024/03/22 04:44:29;;;;;;;29.08;20.33;;;13.30;99.90;;;;;;2095708;28;20477;-70
2024/03/22 04:45:29;;;;;;;25.75;19.65;;;13.30;99.90;;;;;;2092957;28;20033;-71
2024/03/22 04:46:30;;;;;;;25.73;19.15;;;13.30;99.90;;;;;;2093804;28;20111;-69
2024/03/22 04:47:30;;;;;;;26.70;19.60;;;13.30;99.90;;;;;;2093611;28;20020;-71
2024/03/22 04:48:31;;;;;;;26.05;19.50;;;13.30;99.90;;;;;;2092560;28;20022;-71
2024/03/22 04:49:31;;;;;;;22.83;18.50;;;13.30;99.90;;;;;;2094783;28;20070;-70
2024/03/22 04:50:32;;;;;;;23.70;18.48;;;13.30;99.90;;;;;;2093550;28;20028;-71
2024/03/22 04:51:32;;;;;;;24.58;18.30;;;13.30;99.90;;;;;;2093567;28;20056;-69
2024/03/22 04:52:33;;;;;;;29.15;19.50;;;13.30;99.90;;;;;;2096819;28;20028;-71
2024/03/22 04:53:34;;;;;;;27.52;18.55;;;13.30;99.90;;;;;;2093170;28;20024;-70
2024/03/22 04:54:34;;;;;;;24.42;18.95;;;13.30;99.90;;;;;;2095088;28;20098;-70
2024/03/22 04:55:35;;;;;;;29.27;19.27;;;13.30;99.90;;;;;;2085965;28;20056;-69
2024/03/22 04:56:35;;;;;;;26.95;19.05;;;13.30;99.90;;;;;;2085938;28;20025;-69
2024/03/22 04:57:36;;;;;;;26.08;19.42;;;13.30;99.90;;;;;;2094773;28;20044;-71
2024/03/22 04:58:36;;;;;;;25.20;19.20;;;13.30;99.90;;;;;;2094478;28;20033;-70
2024/03/22 04:59:37;;;;;;;25.92;18.65;;;13.30;99.90;;;;;;2091692;28;20375;-71
2024/03/22 05:00:37;;;;;;;23.05;18.98;;;13.30;99.90;;;;;;2094793;28;20107;-70
2024/03/22 05:01:38;;;;;;;28.63;18.42;;;13.30;99.90;;;;;;2093692;28;20529;-70
2024/03/22 05:02:40;;;;;;;23.45;18.58;;;13.30;99.90;;;;;;2094783;28;20392;-68
2024/03/22 05:03:41;;;;;;;21.55;17.63;;;13.30;99.90;;;;;;2092434;28;20524;-71
2024/03/22 05:04:41;;;;;;;24.13;19.05;;;13.30;99.90;;;;;;2091794;28;20372;-70
2024/03/22 05:05:42;;;;;;;26.45;18.98;;;13.30;99.90;;;;;;2093921;28;20025;-71
2024/03/22 05:06:43;;;;;;;24.42;19.35;;;13.30;99.90;;;;;;2095012;28;20090;-71
2024/03/22 05:07:44;;;;;;;26.83;19.08;;;13.30;99.90;;;;;;2094646;28;20070;-71
2024/03/22 05:08:45;;;;;;;24.02;19.15;;;13.30;99.90;;;;;;2096600;28;20431;-72